createdAt,value
2023-01-05T00:02:25.047Z,12.29
2023-01-05T00:07:28.959Z,12.15
2023-01-05T00:12:52.273Z,12.19
2023-01-05T00:18:14.860Z,12.27
2023-01-05T00:23:20.217Z,12.18
2023-01-05T00:28:24.442Z,12.14
2023-01-05T00:33:28.100Z,11.99
2023-01-05T00:38:31.880Z,12.11
2023-01-05T00:43:35.376Z,12.15
2023-01-05T00:48:39.199Z,12.46
2023-01-05T00:53:42.771Z,12.75
2023-01-05T00:58:46.519Z,12.90
2023-01-05T01:03:50.207Z,12.80
2023-01-05T01:08:54.086Z,12.42
2023-01-05T01:13:57.906Z,12.52
2023-01-05T01:19:05.341Z,12.60
2023-01-05T01:24:15.298Z,12.54
2023-01-05T01:29:20.257Z,12.27
2023-01-05T01:34:24.741Z,12.27
2023-01-05T01:39:28.526Z,12.57
2023-01-05T01:44:57.425Z,13.13
2023-01-05T01:50:16.353Z,13.48
2023-01-05T01:55:21.764Z,12.97
2023-01-05T02:00:25.636Z,13.06
2023-01-05T02:05:33.330Z,13.19
2023-01-05T02:11:25.864Z,12.96
2023-01-05T02:17:02.852Z,12.72
2023-01-05T02:23:03.612Z,12.48
2023-01-05T02:28:43.990Z,12.33
2023-01-05T02:34:23.559Z,12.39
2023-01-05T02:39:51.101Z,12.30
2023-01-05T02:44:55.241Z,12.12
2023-01-05T02:50:07.007Z,12.22
2023-01-05T02:55:18.241Z,12.25
2023-01-05T03:00:32.342Z,12.19
2023-01-05T03:05:53.244Z,11.99
2023-01-05T03:11:27.681Z,12.05
2023-01-05T03:16:37.107Z,12.19
2023-01-05T03:22:00.750Z,12.15
2023-01-05T03:27:25.366Z,12.24
2023-01-05T03:32:50.793Z,12.20
2023-01-05T03:38:48.369Z,12.06
2023-01-05T03:43:52.219Z,12.12
2023-01-05T03:48:55.912Z,12.24
2023-01-05T03:53:59.533Z,12.30
2023-01-05T03:59:03.491Z,12.32
2023-01-05T04:04:07.080Z,12.46
2023-01-05T04:09:10.865Z,12.68
2023-01-05T04:14:14.596Z,12.33
2023-01-05T04:19:18.743Z,12.15
2023-01-05T04:24:22.530Z,11.90
2023-01-05T04:29:26.249Z,11.77
2023-01-05T04:34:29.787Z,11.77
2023-01-05T04:39:33.525Z,11.71
2023-01-05T04:44:37.210Z,12.12
2023-01-05T04:49:41.000Z,12.65
2023-01-05T04:54:44.732Z,13.00
2023-01-05T04:59:49.091Z,13.10
2023-01-05T05:04:52.870Z,12.90
2023-01-05T05:09:56.610Z,12.61
2023-01-05T05:15:00.270Z,12.37
2023-01-05T05:20:06.074Z,12.39
2023-01-05T05:25:10.239Z,12.19
2023-01-05T05:30:14.662Z,12.04
2023-01-05T05:35:18.443Z,12.03
2023-01-05T05:40:22.344Z,12.01
2023-01-05T05:45:26.128Z,12.02
2023-01-05T05:50:29.840Z,11.88
2023-01-05T05:55:34.882Z,11.86
2023-01-05T06:00:38.648Z,11.73
2023-01-05T06:05:42.427Z,11.86
2023-01-05T06:10:46.067Z,11.91
2023-01-05T06:15:50.988Z,11.78
2023-01-05T06:21:01.357Z,11.81
2023-01-05T06:26:06.419Z,11.85
2023-01-05T06:31:10.252Z,11.82
2023-01-05T06:36:14.093Z,11.77
2023-01-05T06:41:17.608Z,11.83
2023-01-05T06:46:21.265Z,11.68
2023-01-05T06:51:25.052Z,11.75
2023-01-05T06:56:28.627Z,11.73
2023-01-05T07:01:32.415Z,11.72
2023-01-05T07:06:36.517Z,11.78
2023-01-05T07:11:40.376Z,11.71
2023-01-05T07:16:44.072Z,11.64
2023-01-05T07:21:51.891Z,11.58
2023-01-05T07:27:05.868Z,11.76
2023-01-05T07:32:13.185Z,11.77
2023-01-05T07:37:17.060Z,11.76
2023-01-05T07:42:20.812Z,11.78
2023-01-05T07:47:24.520Z,11.83
2023-01-05T07:52:31.097Z,11.69
2023-01-05T07:57:34.911Z,11.57
2023-01-05T08:02:39.063Z,11.55
2023-01-05T08:07:42.881Z,11.38
2023-01-05T08:13:05.190Z,11.39
2023-01-05T08:18:08.794Z,11.20
2023-01-05T08:23:12.547Z,11.08
2023-01-05T08:28:35.270Z,11.11
2023-01-05T08:33:39.814Z,11.03
2023-01-05T08:38:48.795Z,11.02
2023-01-05T08:43:56.194Z,11.01
2023-01-05T08:49:03.837Z,11.05
2023-01-05T08:54:08.209Z,11.09
2023-01-05T08:59:15.195Z,11.16
2023-01-05T09:04:18.924Z,11.12
2023-01-05T09:09:24.755Z,11.07
2023-01-05T09:14:28.805Z,11.10
2023-01-05T09:19:32.588Z,11.10
2023-01-05T09:24:36.396Z,11.07
2023-01-05T09:29:40.300Z,11.13
2023-01-05T09:34:44.117Z,11.23
2023-01-05T09:39:48.510Z,11.39
2023-01-05T09:45:00.400Z,11.17
2023-01-05T09:50:12.885Z,10.90
2023-01-05T09:55:20.819Z,10.94
2023-01-05T10:00:27.547Z,10.89
2023-01-05T10:05:43.799Z,10.67
2023-01-05T10:11:21.063Z,10.61
2023-01-05T10:16:29.452Z,10.80
2023-01-05T10:21:40.991Z,10.75
2023-01-05T10:27:26.187Z,10.67
2023-01-05T10:33:26.608Z,10.64
2023-01-05T10:38:42.159Z,10.70
2023-01-05T10:44:12.438Z,10.69
2023-01-05T10:49:26.687Z,10.56
2023-01-05T10:54:39.202Z,10.70
2023-01-05T10:59:59.595Z,10.72
2023-01-05T11:05:35.341Z,10.91
2023-01-05T11:10:53.460Z,10.94
2023-01-05T11:16:10.217Z,10.91
2023-01-05T11:21:26.813Z,10.88
2023-01-05T11:27:00.345Z,10.71
2023-01-05T11:32:10.200Z,10.62
2023-01-05T11:37:31.274Z,10.59
2023-01-05T11:42:42.979Z,10.50
2023-01-05T11:47:58.916Z,10.51
2023-01-05T11:53:03.486Z,10.50
2023-01-05T11:58:23.795Z,10.36
2023-01-05T12:03:46.403Z,10.32
2023-01-05T12:09:19.853Z,10.41
2023-01-05T12:14:59.385Z,10.59
2023-01-05T12:20:30.941Z,10.83
2023-01-05T12:26:15.223Z,11.37
2023-01-05T12:33:44.552Z,11.90
2023-01-05T12:37:53.464Z,11.65
2023-01-05T12:43:13.125Z,11.07
2023-01-05T12:48:36.689Z,10.64
2023-01-05T12:53:52.597Z,10.72
2023-01-05T12:59:23.851Z,10.65
2023-01-05T13:04:56.468Z,10.37
2023-01-05T13:10:13.015Z,10.22
2023-01-05T13:15:42.410Z,10.07
2023-01-05T13:21:02.702Z,10.06
2023-01-05T13:26:13.498Z,10.04
2023-01-05T13:31:51.744Z,9.65
2023-01-05T13:37:57.491Z,9.56
2023-01-05T13:43:18.683Z,9.53
2023-01-05T13:49:08.870Z,9.57
2023-01-05T13:54:26.909Z,10.07
2023-01-05T13:59:44.585Z,10.32
2023-01-05T14:04:51.013Z,10.42
2023-01-05T14:09:58.331Z,10.15
2023-01-05T14:15:09.700Z,10.42
2023-01-05T14:20:54.505Z,11.07
2023-01-05T14:26:05.030Z,10.82
2023-01-05T14:31:08.577Z,10.48
2023-01-05T14:37:13.014Z,10.72
2023-01-05T14:42:41.762Z,11.27
2023-01-05T14:47:53.531Z,11.62
2023-01-05T14:53:08.791Z,11.83
2023-01-05T14:58:38.534Z,11.92
2023-01-05T15:04:09.688Z,11.17
2023-01-05T15:10:27.763Z,10.30
2023-01-05T15:16:17.346Z,11.23
2023-01-05T15:21:49.468Z,10.82
2023-01-05T15:27:31.307Z,10.92
2023-01-05T15:32:44.719Z,10.65
2023-01-05T15:37:52.758Z,10.32
2023-01-05T15:43:04.628Z,9.96
2023-01-05T15:48:28.418Z,10.06
2023-01-05T15:53:43.737Z,10.23
2023-01-05T15:58:50.371Z,9.80
2023-01-05T16:04:11.961Z,9.67
2023-01-05T16:09:46.142Z,9.24
2023-01-05T16:15:02.837Z,9.32
2023-01-05T16:20:26.089Z,10.21
2023-01-05T16:25:37.783Z,10.73
2023-01-05T16:30:43.773Z,10.86
2023-01-05T16:35:51.479Z,10.50
2023-01-05T16:41:12.838Z,10.52
2023-01-05T16:46:20.133Z,10.48
2023-01-05T16:51:39.821Z,9.63
2023-01-05T16:57:02.319Z,9.10
2023-01-05T17:02:44.631Z,9.60
2023-01-05T17:08:17.293Z,9.69
2023-01-05T17:13:47.785Z,9.30
2023-01-05T17:18:53.027Z,7.85
2023-01-05T17:24:00.126Z,8.77
2023-01-05T17:29:07.513Z,9.57
2023-01-05T17:34:11.871Z,8.43
2023-01-05T17:39:22.306Z,8.46
2023-01-05T17:44:26.188Z,8.71
2023-01-05T17:49:29.911Z,8.67
2023-01-05T17:54:33.911Z,7.51
2023-01-05T17:59:37.502Z,7.68
2023-01-05T18:04:41.796Z,8.30
2023-01-05T18:09:45.665Z,6.97
2023-01-05T18:14:50.946Z,7.99
2023-01-05T18:19:55.122Z,7.57
2023-01-05T18:25:03.941Z,7.08
2023-01-05T18:30:13.791Z,8.03
2023-01-05T18:35:20.289Z,7.62
2023-01-05T18:40:25.655Z,6.42
2023-01-05T18:45:41.267Z,7.50
2023-01-05T18:50:55.871Z,7.78
2023-01-05T18:56:20.525Z,6.27
2023-01-05T19:01:28.761Z,6.78
2023-01-05T19:06:33.249Z,7.25
2023-01-05T19:11:45.554Z,7.96
2023-01-05T19:16:49.508Z,6.25
2023-01-05T19:21:54.476Z,5.65
2023-01-05T19:26:58.541Z,7.84
2023-01-05T19:32:03.037Z,7.19
2023-01-05T19:37:07.040Z,5.36
2023-01-05T19:42:11.292Z,6.77
2023-01-05T19:47:15.087Z,7.74
2023-01-05T19:52:19.121Z,5.94
2023-01-05T19:57:23.124Z,7.10
2023-01-05T20:02:27.442Z,7.65
2023-01-05T20:07:32.249Z,5.86
2023-01-05T20:12:36.727Z,7.23
2023-01-05T20:17:42.667Z,7.27
2023-01-05T20:22:46.798Z,5.58
2023-01-05T20:27:51.270Z,7.24
2023-01-05T20:32:55.051Z,7.56
2023-01-05T20:37:59.183Z,5.50
2023-01-05T20:43:03.433Z,6.30
2023-01-05T20:48:07.625Z,7.64
2023-01-05T20:53:11.542Z,6.01
2023-01-05T20:58:16.003Z,6.08
2023-01-05T21:03:22.879Z,6.88
2023-01-05T21:08:27.853Z,5.33
2023-01-05T21:13:34.030Z,7.00
2023-01-05T21:18:44.339Z,7.50
2023-01-05T21:23:51.877Z,5.31
2023-01-05T21:28:56.652Z,6.40
2023-01-05T21:34:00.545Z,7.81
2023-01-05T21:39:09.825Z,5.94
2023-01-05T21:44:16.437Z,5.76
2023-01-05T21:49:21.545Z,7.69
2023-01-05T21:54:46.850Z,6.07
2023-01-05T21:59:51.171Z,6.25
2023-01-05T22:04:55.147Z,6.85
2023-01-05T22:10:00.867Z,5.00
2023-01-05T22:15:07.855Z,4.68
2023-01-05T22:20:14.781Z,6.91
2023-01-05T22:25:19.537Z,7.28
2023-01-05T22:30:23.675Z,5.13
2023-01-05T22:35:28.980Z,5.82
2023-01-05T22:40:33.083Z,7.55
2023-01-05T22:45:37.452Z,5.95
2023-01-05T22:50:42.750Z,5.23
2023-01-05T22:55:47.644Z,7.13
2023-01-05T23:00:52.316Z,6.47
2023-01-05T23:05:56.177Z,5.18
2023-01-05T23:11:03.246Z,6.97
2023-01-05T23:16:08.600Z,6.25
2023-01-05T23:21:15.153Z,4.43
2023-01-05T23:26:19.044Z,5.38
2023-01-05T23:31:23.123Z,7.32
2023-01-05T23:36:26.902Z,6.59
2023-01-05T23:41:31.197Z,4.72
2023-01-05T23:46:35.077Z,4.19
2023-01-05T23:51:38.921Z,5.84
2023-01-05T23:56:42.697Z,7.38
